Time;durP1;ratioP1;P1;durP2;ratioP2;P2;SDS_P1;SDS_P2;PMS_P1;PMS_P2;Temp;Humidity;BMP_temperature;BMP_pressure;BME280_temperature;BME280_humidity;BME280_pressure;Samples;Min_cycle;Max_cycle;Signal;HPM_P1;HPM_P2
2023/02/08 00:00:42;;;;;;;81.20;44.40;;;;;;;;;;754277;183;919445;-70
2023/02/08 00:03:08;;;;;;;52.30;31.20;;;;;;;;;;752572;183;917149;-63
2023/02/08 00:05:33;;;;;;;59.57;32.67;;;;;;;;;;758866;182;910940;-70
2023/02/08 00:07:59;;;;;;;69.57;34.77;;;;;;;;;;752242;183;918915;-70
2023/02/08 00:10:25;;;;;;;52.43;25.67;;;;;;;;;;758834;183;916120;-69
2023/02/08 00:12:51;;;;;;;66.83;31.10;;;;;;;;;;764284;182;915174;-70
2023/02/08 00:15:17;;;;;;;75.10;36.90;;;;;;;;;;760028;182;924535;-71
2023/02/08 00:17:43;;;;;;;47.63;23.33;;;;;;;;;;758967;182;919273;-63
2023/02/08 00:20:09;;;;;;;53.37;30.93;;;;;;;;;;763254;180;850447;-63
2023/02/08 00:22:35;;;;;;;58.40;31.27;;;;;;;;;;759702;180;918880;-70
2023/02/08 00:25:01;;;;;;;72.67;36.73;;;;;;;;;;760916;183;917239;-71
2023/02/08 00:27:27;;;;;;;64.47;29.23;;;;;;;;;;753335;183;919188;-63
2023/02/08 00:29:52;;;;;;;47.93;25.33;;;;;;;;;;757676;185;816618;-63
2023/02/08 00:32:18;;;;;;;86.80;41.00;;;;;;;;;;756058;182;919960;-64
2023/02/08 00:34:44;;;;;;;62.23;27.30;;;;;;;;;;756152;182;919156;-70
2023/02/08 00:37:10;;;;;;;60.17;31.27;;;;;;;;;;766354;183;815116;-70
2023/02/08 00:39:36;;;;;;;54.57;28.50;;;;;;;;;;754830;183;919238;-71
2023/02/08 00:42:02;;;;;;;66.23;31.67;;;;;;;;;;754528;185;958256;-64
2023/02/08 00:44:27;;;;;;;61.10;33.17;;;;;;;;;;758833;182;917449;-63
2023/02/08 00:46:53;;;;;;;55.30;29.27;;;;;;;;;;751742;184;915924;-62
2023/02/08 00:49:19;;;;;;;64.03;32.93;;;;;;;;;;761190;179;895369;-63
2023/02/08 00:51:45;;;;;;;84.72;41.28;;;;;;;;;;755055;182;914366;-64
2023/02/08 00:54:11;;;;;;;90.20;42.90;;;;;;;;;;755142;184;921600;-63
2023/02/08 00:56:37;;;;;;;84.73;37.67;;;;;;;;;;757038;182;916859;-70
2023/02/08 00:59:02;;;;;;;87.57;35.57;;;;;;;;;;755028;182;920996;-69
2023/02/08 01:01:28;;;;;;;64.60;30.07;;;;;;;;;;766632;181;712819;-65
2023/02/08 01:03:54;;;;;;;70.77;37.80;;;;;;;;;;752435;183;919113;-70
2023/02/08 01:06:20;;;;;;;77.27;41.27;;;;;;;;;;758387;182;918563;-70
2023/02/08 01:08:46;;;;;;;70.53;36.17;;;;;;;;;;765156;183;919108;-63
2023/02/08 01:11:12;;;;;;;83.63;40.03;;;;;;;;;;756532;182;921712;-71
2023/02/08 01:13:37;;;;;;;38.80;21.43;;;;;;;;;;755885;182;920457;-70
2023/02/08 01:16:05;;;;;;;75.90;36.28;;;;;;;;;;757578;183;922545;-63
2023/02/08 01:18:31;;;;;;;75.07;36.87;;;;;;;;;;755624;185;915727;-62
2023/02/08 01:20:57;;;;;;;76.40;34.93;;;;;;;;;;758963;182;918105;-61
2023/02/08 01:23:23;;;;;;;91.33;43.10;;;;;;;;;;753239;183;918572;-70
2023/02/08 01:25:48;;;;;;;62.40;26.80;;;;;;;;;;763319;182;918535;-70
2023/02/08 01:28:14;;;;;;;78.40;33.50;;;;;;;;;;758609;183;858763;-63
2023/02/08 01:30:40;;;;;;;87.33;42.93;;;;;;;;;;761844;180;919242;-70
2023/02/08 01:33:06;;;;;;;90.50;42.07;;;;;;;;;;762722;180;913207;-63
2023/02/08 01:35:32;;;;;;;51.90;26.90;;;;;;;;;;758157;182;918275;-71
2023/02/08 01:37:58;;;;;;;84.43;41.27;;;;;;;;;;754205;183;918983;-70
2023/02/08 01:40:23;;;;;;;104.43;43.83;;;;;;;;;;759843;183;919264;-62
2023/02/08 01:42:49;;;;;;;63.20;27.87;;;;;;;;;;763747;179;919237;-63
2023/02/08 01:45:19;;;;;;;65.70;33.23;;;;;;;;;;758018;182;919169;-70
2023/02/08 01:47:41;;;;;;;81.57;37.97;;;;;;;;;;762177;182;926225;-70
2023/02/08 01:50:07;;;;;;;80.77;35.43;;;;;;;;;;758675;182;921584;-62
2023/02/08 01:52:33;;;;;;;83.80;39.20;;;;;;;;;;751783;182;1021733;-63
2023/02/08 01:54:59;;;;;;;83.35;31.55;;;;;;;;;;758016;183;918606;-64
2023/02/08 01:57:24;;;;;;;89.00;40.70;;;;;;;;;;761714;183;819084;-70
2023/02/08 01:59:50;;;;;;;66.77;31.87;;;;;;;;;;757273;183;919055;-70
2023/02/08 02:02:16;;;;;;;106.03;49.40;;;;;;;;;;762176;183;1019347;-70
2023/02/08 02:04:42;;;;;;;102.43;39.37;;;;;;;;;;765002;183;817764;-63
2023/02/08 02:07:08;;;;;;;77.90;37.70;;;;;;;;;;768559;180;918883;-70
2023/02/08 02:09:36;;;;;;;95.57;38.30;;;;;;;;;;762262;181;915997;-71
2023/02/08 02:12:01;;;;;;;53.20;23.73;;;;;;;;;;756987;181;917500;-64
2023/02/08 02:14:27;;;;;;;95.03;40.20;;;;;;;;;;762717;182;919516;-71
2023/02/08 02:16:53;;;;;;;102.07;44.40;;;;;;;;;;766625;179;816048;-70
2023/02/08 02:19:24;;;;;;;89.63;46.00;;;;;;;;;;755893;183;920668;-70
2023/02/08 02:21:50;;;;;;;87.63;41.53;;;;;;;;;;759069;182;918574;-73
2023/02/08 02:24:34;;;;;;;86.40;44.67;;;;;;;;;;755660;184;805518;-64
2023/02/08 02:27:06;;;;;;;90.80;40.80;;;;;;;;;;760347;179;900380;-72
2023/02/08 02:29:34;;;;;;;103.50;49.00;;;;;;;;;;762389;179;920159;-62
2023/02/08 02:32:01;;;;;;;90.00;41.33;;;;;;;;;;755384;182;913722;-64
2023/02/08 02:34:31;;;;;;;87.73;44.03;;;;;;;;;;768581;181;1016660;-64
2023/02/08 02:36:59;;;;;;;80.40;37.40;;;;;;;;;;760295;182;918892;-63
2023/02/08 02:39:28;;;;;;;107.93;47.87;;;;;;;;;;757497;182;922076;-71
2023/02/08 02:44:42;;;;;;;113.57;51.70;;;;;;;;;;755428;182;919394;-72
2023/02/08 02:47:08;;;;;;;91.57;48.40;;;;;;;;;;761758;183;918441;-71
2023/02/08 02:49:39;;;;;;;98.30;49.80;;;;;;;;;;759512;184;918839;-72
2023/02/08 02:52:07;;;;;;;98.67;47.00;;;;;;;;;;756335;183;818066;-74
2023/02/08 02:54:34;;;;;;;116.50;49.97;;;;;;;;;;753843;183;924963;-72
2023/02/08 02:57:00;;;;;;;88.53;49.57;;;;;;;;;;762275;184;819444;-64
2023/02/08 02:59:26;;;;;;;107.07;49.00;;;;;;;;;;762054;182;915691;-64
2023/02/08 03:01:51;;;;;;;112.93;47.58;;;;;;;;;;752556;183;920785;-71
2023/02/08 03:04:17;;;;;;;95.60;45.60;;;;;;;;;;756635;182;813253;-71
2023/02/08 03:06:47;;;;;;;98.30;42.53;;;;;;;;;;758920;184;919862;-71
2023/02/08 03:09:13;;;;;;;112.30;48.43;;;;;;;;;;764937;180;918944;-64
2023/02/08 03:11:39;;;;;;;106.77;53.90;;;;;;;;;;763759;180;918181;-64
2023/02/08 03:14:07;;;;;;;103.50;48.97;;;;;;;;;;757559;185;911738;-63
2023/02/08 03:16:38;;;;;;;109.37;50.47;;;;;;;;;;746934;186;913861;-71
2023/02/08 03:19:07;;;;;;;115.13;53.23;;;;;;;;;;767527;179;814814;-64
2023/02/08 03:21:37;;;;;;;86.67;43.47;;;;;;;;;;763032;183;622603;-64
2023/02/08 03:24:08;;;;;;;97.77;49.90;;;;;;;;;;761439;183;623862;-71
2023/02/08 03:26:35;;;;;;;105.00;49.47;;;;;;;;;;761384;185;617196;-72
2023/02/08 03:29:16;;;;;;;90.00;43.53;;;;;;;;;;770409;180;640586;-65
2023/02/08 03:31:42;;;;;;;109.63;50.13;;;;;;;;;;753984;182;919357;-72
2023/02/08 03:34:07;;;;;;;105.67;51.67;;;;;;;;;;759084;182;920039;-64
2023/02/08 03:36:34;;;;;;;105.87;46.03;;;;;;;;;;756078;182;919291;-64
2023/02/08 03:39:00;;;;;;;96.40;47.77;;;;;;;;;;752384;183;918339;-72
2023/02/08 03:41:26;;;;;;;156.07;67.77;;;;;;;;;;754563;182;937940;-64
2023/02/08 03:43:52;;;;;;;257.10;99.03;;;;;;;;;;755484;183;918737;-64
2023/02/08 03:46:19;;;;;;;96.67;52.03;;;;;;;;;;756115;181;925219;-73
2023/02/08 03:48:45;;;;;;;124.67;55.57;;;;;;;;;;759187;182;924278;-64
2023/02/08 03:51:11;;;;;;;105.30;47.43;;;;;;;;;;757061;182;919616;-71
2023/02/08 03:53:38;;;;;;;86.60;37.33;;;;;;;;;;761998;183;1019985;-71
2023/02/08 03:56:03;;;;;;;96.23;47.00;;;;;;;;;;757867;183;918390;-65
2023/02/08 03:58:31;;;;;;;115.00;55.00;;;;;;;;;;756544;182;918147;-71
2023/02/08 04:00:57;;;;;;;182.03;79.10;;;;;;;;;;760790;183;918302;-71
2023/02/08 04:03:23;;;;;;;86.43;37.67;;;;;;;;;;759296;183;914410;-64
2023/02/08 04:05:49;;;;;;;125.53;67.17;;;;;;;;;;755414;183;920439;-71
2023/02/08 04:08:15;;;;;;;115.37;55.53;;;;;;;;;;761037;181;924183;-72
2023/02/08 04:10:41;;;;;;;126.87;53.07;;;;;;;;;;759449;179;817129;-64
2023/02/08 04:13:07;;;;;;;134.70;57.90;;;;;;;;;;762809;181;820489;-63
2023/02/08 04:15:33;;;;;;;130.07;63.73;;;;;;;;;;766438;181;919440;-72
2023/02/08 04:17:58;;;;;;;112.83;53.13;;;;;;;;;;761391;183;918625;-71
2023/02/08 04:20:24;;;;;;;77.00;39.57;;;;;;;;;;757927;182;917473;-64
2023/02/08 04:22:50;;;;;;;108.53;52.80;;;;;;;;;;758704;183;916003;-64
2023/02/08 04:25:16;;;;;;;129.73;61.43;;;;;;;;;;756300;186;916930;-62
2023/02/08 04:27:42;;;;;;;146.90;65.60;;;;;;;;;;750483;183;1073701;-71
2023/02/08 04:30:08;;;;;;;204.60;95.43;;;;;;;;;;764687;179;909571;-66
2023/02/08 04:32:34;;;;;;;106.13;54.53;;;;;;;;;;758988;184;896490;-64
2023/02/08 04:35:00;;;;;;;114.40;57.20;;;;;;;;;;753821;185;816896;-63
2023/02/08 04:37:26;;;;;;;109.23;53.83;;;;;;;;;;753653;183;912147;-63
2023/02/08 04:39:51;;;;;;;117.83;57.20;;;;;;;;;;755548;182;949827;-70
2023/02/08 04:42:17;;;;;;;111.43;53.27;;;;;;;;;;766867;181;918473;-63
2023/02/08 04:44:43;;;;;;;107.00;50.27;;;;;;;;;;751757;183;1123215;-64
2023/02/08 04:47:09;;;;;;;72.00;34.93;;;;;;;;;;748568;183;919480;-63
2023/02/08 04:49:35;;;;;;;97.40;48.23;;;;;;;;;;756924;182;816383;-70
2023/02/08 04:52:01;;;;;;;88.10;41.10;;;;;;;;;;752222;182;919025;-63
2023/02/08 04:54:27;;;;;;;124.83;56.40;;;;;;;;;;751624;183;916091;-63
2023/02/08 04:56:52;;;;;;;112.88;36.28;;;;;;;;;;760486;183;918030;-62
2023/02/08 04:59:18;;;;;;;115.13;51.93;;;;;;;;;;756092;182;1019938;-70
2023/02/08 05:01:44;;;;;;;132.80;58.47;;;;;;;;;;750990;182;917484;-63
2023/02/08 05:04:10;;;;;;;139.43;66.27;;;;;;;;;;747134;185;816753;-70
2023/02/08 05:06:36;;;;;;;141.63;67.77;;;;;;;;;;752985;185;920253;-70
2023/02/08 05:09:02;;;;;;;113.00;53.30;;;;;;;;;;757278;182;917672;-69
2023/02/08 05:11:28;;;;;;;130.17;61.57;;;;;;;;;;754468;183;923325;-70
2023/02/08 05:13:53;;;;;;;80.03;38.50;;;;;;;;;;766550;180;917134;-62
2023/02/08 05:16:19;;;;;;;103.50;47.50;;;;;;;;;;759880;183;917836;-72
2023/02/08 05:18:45;;;;;;;122.68;52.47;;;;;;;;;;756595;182;919289;-64
2023/02/08 05:21:11;;;;;;;108.77;45.10;;;;;;;;;;760713;182;817566;-64
2023/02/08 05:23:37;;;;;;;65.50;31.07;;;;;;;;;;766133;182;619613;-71
2023/02/08 05:26:04;;;;;;;90.78;37.70;;;;;;;;;;759741;181;919565;-63
2023/02/08 05:28:30;;;;;;;106.03;49.63;;;;;;;;;;754052;182;919632;-69
2023/02/08 05:30:56;;;;;;;114.33;54.07;;;;;;;;;;760027;182;918993;-62
2023/02/08 05:33:22;;;;;;;101.57;50.70;;;;;;;;;;754258;182;921388;-71
2023/02/08 05:35:48;;;;;;;83.70;40.17;;;;;;;;;;759094;183;919182;-63
2023/02/08 05:38:14;;;;;;;117.23;55.40;;;;;;;;;;762245;183;918486;-63
2023/02/08 05:40:39;;;;;;;96.47;42.87;;;;;;;;;;754728;182;852564;-63
2023/02/08 05:43:06;;;;;;;98.97;40.95;;;;;;;;;;750331;184;919901;-70
2023/02/08 05:45:31;;;;;;;59.77;30.07;;;;;;;;;;750161;186;916920;-70
2023/02/08 05:47:57;;;;;;;104.80;46.70;;;;;;;;;;756712;183;890380;-63
2023/02/08 05:50:23;;;;;;;105.97;50.13;;;;;;;;;;753057;185;924915;-71
2023/02/08 05:52:49;;;;;;;108.07;49.37;;;;;;;;;;760931;183;907905;-71
2023/02/08 05:55:14;;;;;;;85.97;42.33;;;;;;;;;;761472;183;1019247;-63
2023/02/08 05:57:40;;;;;;;89.73;45.63;;;;;;;;;;759295;181;919311;-70
2023/02/08 06:00:07;;;;;;;91.20;42.83;;;;;;;;;;755117;182;919066;-70
2023/02/08 06:02:33;;;;;;;100.20;46.20;;;;;;;;;;762286;182;811797;-63
2023/02/08 06:04:58;;;;;;;92.80;43.47;;;;;;;;;;757871;182;916900;-70
2023/02/08 06:07:24;;;;;;;96.57;43.27;;;;;;;;;;756317;183;920802;-64
2023/02/08 06:09:50;;;;;;;81.57;41.13;;;;;;;;;;762930;182;633534;-71
2023/02/08 06:12:16;;;;;;;85.53;44.50;;;;;;;;;;758491;182;917809;-71
2023/02/08 06:14:42;;;;;;;41.33;24.93;;;;;;;;;;757797;183;918834;-64
2023/02/08 06:17:08;;;;;;;77.43;35.40;;;;;;;;;;762987;183;817716;-71
2023/02/08 06:19:34;;;;;;;101.90;41.90;;;;;;;;;;757162;182;920191;-63
2023/02/08 06:21:59;;;;;;;88.10;45.40;;;;;;;;;;756089;183;918223;-71
2023/02/08 06:24:25;;;;;;;99.43;48.53;;;;;;;;;;757601;182;920667;-63
2023/02/08 06:26:51;;;;;;;133.50;57.77;;;;;;;;;;762158;182;926649;-70
2023/02/08 06:29:17;;;;;;;131.57;59.73;;;;;;;;;;755637;185;918121;-63
2023/02/08 06:31:43;;;;;;;110.17;52.67;;;;;;;;;;757889;183;919365;-63
2023/02/08 06:34:09;;;;;;;111.60;53.73;;;;;;;;;;761662;183;816676;-70
2023/02/08 06:36:34;;;;;;;110.63;51.37;;;;;;;;;;756683;183;918504;-63
2023/02/08 06:39:00;;;;;;;121.78;55.38;;;;;;;;;;755135;183;918975;-70
2023/02/08 06:41:26;;;;;;;86.10;38.37;;;;;;;;;;759050;183;914762;-70
2023/02/08 06:43:52;;;;;;;211.65;88.70;;;;;;;;;;759142;182;1001659;-71
2023/02/08 06:46:18;;;;;;;134.77;65.67;;;;;;;;;;756931;182;918227;-63
2023/02/08 06:48:44;;;;;;;145.70;61.50;;;;;;;;;;756716;182;917835;-69
2023/02/08 06:51:10;;;;;;;148.57;68.40;;;;;;;;;;757653;182;910883;-70
2023/02/08 06:53:35;;;;;;;121.07;55.33;;;;;;;;;;754498;182;900884;-70
2023/02/08 06:56:01;;;;;;;105.07;49.05;;;;;;;;;;755432;183;922083;-70
2023/02/08 06:58:27;;;;;;;55.53;23.87;;;;;;;;;;762170;183;918301;-63
2023/02/08 07:00:53;;;;;;;90.33;46.37;;;;;;;;;;754501;182;917536;-70
2023/02/08 07:03:21;;;;;;;67.50;35.20;;;;;;;;;;755751;182;915524;-62
2023/02/08 07:05:45;;;;;;;79.00;39.50;;;;;;;;;;759526;183;918588;-63
2023/02/08 07:08:11;;;;;;;56.57;26.60;;;;;;;;;;750441;183;915949;-62
2023/02/08 07:10:36;;;;;;;91.33;40.63;;;;;;;;;;761526;180;918394;-71
2023/02/08 07:13:02;;;;;;;81.67;43.47;;;;;;;;;;764497;182;917699;-62
2023/02/08 07:15:29;;;;;;;68.22;36.05;;;;;;;;;;762303;183;919211;-70
2023/02/08 07:17:54;;;;;;;85.30;42.37;;;;;;;;;;754934;183;920598;-70
2023/02/08 07:20:20;;;;;;;61.40;32.37;;;;;;;;;;755357;183;919772;-71
2023/02/08 07:22:46;;;;;;;58.28;26.23;;;;;;;;;;762534;181;818351;-71
2023/02/08 07:25:11;;;;;;;46.57;25.93;;;;;;;;;;763963;182;919064;-64
2023/02/08 07:27:37;;;;;;;46.97;27.20;;;;;;;;;;753450;179;913648;-63
2023/02/08 07:30:03;;;;;;;87.57;43.87;;;;;;;;;;775994;179;806717;-63
2023/02/08 07:32:30;;;;;;;78.13;41.07;;;;;;;;;;755919;184;817495;-71
2023/02/08 07:34:55;;;;;;;67.63;30.57;;;;;;;;;;759315;183;917226;-71
2023/02/08 07:37:21;;;;;;;69.33;36.13;;;;;;;;;;762317;183;920636;-70
2023/02/08 07:39:47;;;;;;;64.03;31.67;;;;;;;;;;759308;183;818791;-70
2023/02/08 07:42:13;;;;;;;71.47;34.17;;;;;;;;;;753518;182;918858;-63
2023/02/08 07:44:39;;;;;;;57.63;24.87;;;;;;;;;;756459;182;917573;-70
2023/02/08 07:47:05;;;;;;;49.17;33.55;;;;;;;;;;761848;183;917018;-62
2023/02/08 07:49:31;;;;;;;87.30;39.67;;;;;;;;;;763818;179;919597;-70
2023/02/08 07:51:56;;;;;;;99.13;46.37;;;;;;;;;;753314;182;930158;-71
2023/02/08 07:54:22;;;;;;;48.63;26.03;;;;;;;;;;762848;183;919026;-71
2023/02/08 07:56:48;;;;;;;143.63;53.97;;;;;;;;;;760448;182;918190;-71
2023/02/08 07:59:14;;;;;;;59.50;30.50;;;;;;;;;;758623;180;929957;-63
2023/02/08 08:01:40;;;;;;;85.93;37.43;;;;;;;;;;761376;183;923436;-63
2023/02/08 08:04:07;;;;;;;86.73;44.50;;;;;;;;;;761113;180;1015676;-62
2023/02/08 08:06:33;;;;;;;88.57;37.57;;;;;;;;;;767876;181;949287;-71
2023/02/08 08:08:59;;;;;;;67.60;31.43;;;;;;;;;;760082;180;920798;-70
2023/02/08 08:11:25;;;;;;;52.13;28.47;;;;;;;;;;751175;186;918860;-63
2023/02/08 08:13:50;;;;;;;50.83;29.50;;;;;;;;;;756533;183;918677;-71
2023/02/08 08:16:16;;;;;;;53.63;24.07;;;;;;;;;;762314;180;929522;-64
2023/02/08 08:18:42;;;;;;;60.60;30.37;;;;;;;;;;760103;183;914120;-71
2023/02/08 08:21:08;;;;;;;87.83;35.37;;;;;;;;;;758870;183;740433;-66
2023/02/08 08:23:35;;;;;;;94.60;45.30;;;;;;;;;;756980;183;922982;-64
2023/02/08 08:26:09;;;;;;;65.97;33.15;;;;;;;;;;759608;183;816494;-63
2023/02/08 08:28:35;;;;;;;69.13;21.20;;;;;;;;;;758680;186;817075;-72
2023/02/08 08:31:01;;;;;;;88.50;41.20;;;;;;;;;;760159;183;918942;-71
2023/02/08 08:33:26;;;;;;;108.00;40.67;;;;;;;;;;758216;183;919040;-65
2023/02/08 08:35:52;;;;;;;94.53;48.07;;;;;;;;;;759681;183;918195;-65
2023/02/08 08:38:18;;;;;;;97.73;51.20;;;;;;;;;;758367;181;919140;-72
2023/02/08 08:40:44;;;;;;;82.77;38.57;;;;;;;;;;760823;182;959915;-71
2023/02/08 08:43:10;;;;;;;91.95;41.55;;;;;;;;;;763370;184;841370;-65
2023/02/08 08:45:36;;;;;;;61.23;25.77;;;;;;;;;;760011;183;918517;-64
2023/02/08 08:48:02;;;;;;;57.90;28.95;;;;;;;;;;755772;183;918671;-64
2023/02/08 08:50:28;;;;;;;91.97;44.93;;;;;;;;;;756724;182;816086;-64
2023/02/08 08:52:54;;;;;;;110.63;51.78;;;;;;;;;;758650;184;919149;-64
2023/02/08 08:55:20;;;;;;;76.43;37.17;;;;;;;;;;756471;183;919006;-71
2023/02/08 08:57:46;;;;;;;45.90;26.63;;;;;;;;;;754766;182;917676;-72
2023/02/08 09:00:12;;;;;;;88.18;45.53;;;;;;;;;;764527;183;915668;-72
2023/02/08 09:02:39;;;;;;;82.27;32.37;;;;;;;;;;752336;183;913551;-62
2023/02/08 09:05:06;;;;;;;68.70;31.33;;;;;;;;;;757658;184;918352;-62
2023/02/08 09:07:31;;;;;;;97.23;44.50;;;;;;;;;;763379;181;817952;-63
2023/02/08 09:09:56;;;;;;;94.67;44.87;;;;;;;;;;766609;181;818930;-63
2023/02/08 09:12:22;;;;;;;96.43;40.30;;;;;;;;;;754402;182;918064;-74
2023/02/08 09:14:48;;;;;;;113.10;50.60;;;;;;;;;;764345;183;818661;-62
2023/02/08 09:17:14;;;;;;;89.83;46.30;;;;;;;;;;759985;183;714586;-63
2023/02/08 09:19:41;;;;;;;78.40;30.10;;;;;;;;;;754730;183;913773;-63
2023/02/08 09:22:06;;;;;;;83.00;38.03;;;;;;;;;;761186;183;619417;-74
2023/02/08 09:24:32;;;;;;;72.93;35.87;;;;;;;;;;761734;182;713906;-73
2023/02/08 09:26:57;;;;;;;100.37;46.27;;;;;;;;;;760376;180;816351;-64
2023/02/08 09:29:23;;;;;;;73.07;33.55;;;;;;;;;;749089;182;1021495;-68
2023/02/08 09:31:49;;;;;;;84.80;42.70;;;;;;;;;;767873;183;634212;-65
2023/02/08 09:34:15;;;;;;;81.80;43.80;;;;;;;;;;753396;184;921757;-73
2023/02/08 09:36:41;;;;;;;68.23;29.57;;;;;;;;;;765975;181;909814;-73
2023/02/08 09:39:07;;;;;;;78.63;38.20;;;;;;;;;;754463;183;919089;-64
2023/02/08 09:41:32;;;;;;;95.03;43.97;;;;;;;;;;754853;185;919210;-73
2023/02/08 09:44:00;;;;;;;96.23;43.60;;;;;;;;;;750862;181;918349;-62
2023/02/08 09:46:26;;;;;;;81.97;37.87;;;;;;;;;;767081;177;1020155;-73
2023/02/08 09:48:52;;;;;;;72.97;38.03;;;;;;;;;;765753;183;915296;-70
2023/02/08 09:51:21;;;;;;;84.77;37.80;;;;;;;;;;758206;182;915795;-62
2023/02/08 09:53:49;;;;;;;59.07;26.33;;;;;;;;;;754931;184;887614;-61
2023/02/08 09:56:13;;;;;;;95.90;44.50;;;;;;;;;;766861;182;914836;-71
2023/02/08 09:58:39;;;;;;;80.73;39.87;;;;;;;;;;761400;182;816959;-62
2023/02/08 10:01:06;;;;;;;82.60;35.30;;;;;;;;;;756242;183;917447;-73
2023/02/08 10:03:33;;;;;;;73.28;36.03;;;;;;;;;;763522;182;864939;-73
2023/02/08 10:05:59;;;;;;;77.07;33.90;;;;;;;;;;759226;185;918857;-73
2023/02/08 10:08:24;;;;;;;89.33;39.63;;;;;;;;;;753201;183;919369;-72
2023/02/08 10:10:53;;;;;;;57.03;31.07;;;;;;;;;;753531;185;921707;-72
2023/02/08 10:13:37;;;;;;;74.77;37.33;;;;;;;;;;761300;183;821583;-61
2023/02/08 10:16:16;;;;;;;42.23;19.17;;;;;;;;;;763097;183;919163;-73
2023/02/08 10:18:57;;;;;;;73.80;32.73;;;;;;;;;;752795;186;916190;-63
2023/02/08 10:21:28;;;;;;;74.13;42.47;;;;;;;;;;758940;183;918574;-63
2023/02/08 10:23:58;;;;;;;91.10;46.47;;;;;;;;;;748989;185;918810;-62
2023/02/08 10:26:31;;;;;;;69.33;37.13;;;;;;;;;;754511;182;911216;-73
2023/02/08 10:29:12;;;;;;;60.83;33.87;;;;;;;;;;753614;183;920438;-62
2023/02/08 10:31:50;;;;;;;67.85;34.47;;;;;;;;;;760061;183;922335;-62
2023/02/08 10:34:21;;;;;;;67.50;32.90;;;;;;;;;;757073;183;919519;-62
2023/02/08 10:36:47;;;;;;;74.67;32.77;;;;;;;;;;757707;183;918591;-63
2023/02/08 10:39:14;;;;;;;92.63;44.67;;;;;;;;;;761244;181;918195;-73
2023/02/08 10:41:40;;;;;;;64.40;32.57;;;;;;;;;;756386;182;918771;-63
2023/02/08 10:44:12;;;;;;;64.00;32.40;;;;;;;;;;754224;183;919657;-73
2023/02/08 10:46:38;;;;;;;42.77;25.03;;;;;;;;;;762385;182;915255;-73
2023/02/08 10:49:07;;;;;;;69.13;38.23;;;;;;;;;;749792;182;816447;-63
2023/02/08 10:51:31;;;;;;;83.53;41.63;;;;;;;;;;760753;182;718860;-73
2023/02/08 10:53:57;;;;;;;79.00;42.67;;;;;;;;;;752978;183;918403;-72
2023/02/08 10:56:39;;;;;;;86.53;43.73;;;;;;;;;;759485;183;918719;-74
2023/02/08 10:59:05;;;;;;;69.60;36.60;;;;;;;;;;754968;185;917774;-73
2023/02/08 11:01:31;;;;;;;73.57;27.37;;;;;;;;;;745294;183;1027274;-63
2023/02/08 11:04:03;;;;;;;67.12;38.40;;;;;;;;;;757816;182;919750;-63
2023/02/08 11:06:29;;;;;;;61.13;30.53;;;;;;;;;;756606;183;920554;-63
2023/02/08 11:08:55;;;;;;;83.50;43.57;;;;;;;;;;753786;182;919131;-73
2023/02/08 11:11:20;;;;;;;89.20;43.60;;;;;;;;;;756868;180;921087;-73
2023/02/08 11:13:47;;;;;;;80.63;42.40;;;;;;;;;;755732;183;918758;-63
2023/02/08 11:16:12;;;;;;;70.40;35.67;;;;;;;;;;769743;179;918620;-64
2023/02/08 11:18:39;;;;;;;64.13;32.23;;;;;;;;;;759057;183;919574;-62
2023/02/08 11:21:07;;;;;;;75.78;34.45;;;;;;;;;;754891;184;919323;-73
2023/02/08 11:23:31;;;;;;;67.87;31.10;;;;;;;;;;759962;183;915721;-73
2023/02/08 11:26:03;;;;;;;77.47;35.90;;;;;;;;;;755345;182;919906;-74
2023/02/08 11:28:29;;;;;;;62.17;35.97;;;;;;;;;;756967;182;917964;-73
2023/02/08 11:30:55;;;;;;;69.70;34.10;;;;;;;;;;753207;183;919957;-73
2023/02/08 11:33:22;;;;;;;55.37;31.77;;;;;;;;;;760632;183;913427;-74
2023/02/08 11:35:52;;;;;;;53.87;30.80;;;;;;;;;;760647;183;919328;-62
2023/02/08 11:38:18;;;;;;;66.07;28.90;;;;;;;;;;753673;183;920113;-73
2023/02/08 11:40:45;;;;;;;55.27;28.70;;;;;;;;;;760904;182;913919;-73
2023/02/08 11:43:16;;;;;;;59.00;31.77;;;;;;;;;;761594;182;927493;-63
2023/02/08 11:45:42;;;;;;;66.50;36.50;;;;;;;;;;758491;183;917844;-63
2023/02/08 11:48:08;;;;;;;72.10;37.23;;;;;;;;;;761050;183;917661;-63
2023/02/08 11:50:34;;;;;;;66.83;37.57;;;;;;;;;;757893;182;920814;-72
2023/02/08 11:53:00;;;;;;;78.87;40.87;;;;;;;;;;754673;182;918732;-73
2023/02/08 11:55:26;;;;;;;76.13;40.63;;;;;;;;;;756991;183;816041;-73
2023/02/08 11:57:52;;;;;;;76.87;39.67;;;;;;;;;;757913;182;940370;-74
2023/02/08 12:00:18;;;;;;;71.37;35.87;;;;;;;;;;755100;182;936745;-75
2023/02/08 12:02:45;;;;;;;66.93;33.37;;;;;;;;;;761771;180;938906;-73
2023/02/08 12:05:10;;;;;;;62.70;31.37;;;;;;;;;;755350;182;918565;-73
2023/02/08 12:07:42;;;;;;;73.80;35.93;;;;;;;;;;762384;183;919023;-63
2023/02/08 12:10:22;;;;;;;58.63;31.73;;;;;;;;;;757482;182;920248;-73
2023/02/08 12:12:52;;;;;;;67.50;36.17;;;;;;;;;;762510;182;913118;-63
2023/02/08 12:15:22;;;;;;;62.93;30.77;;;;;;;;;;761046;183;918881;-73
2023/02/08 12:17:53;;;;;;;86.73;40.80;;;;;;;;;;765141;181;921581;-63
2023/02/08 12:20:30;;;;;;;69.90;30.60;;;;;;;;;;759630;183;919944;-63
2023/02/08 12:23:06;;;;;;;56.57;28.43;;;;;;;;;;759477;184;752759;-73
2023/02/08 12:25:38;;;;;;;48.47;26.03;;;;;;;;;;758660;182;853256;-64
2023/02/08 12:28:04;;;;;;;46.60;26.33;;;;;;;;;;755652;182;917802;-74
2023/02/08 12:30:32;;;;;;;53.53;30.07;;;;;;;;;;755758;181;940589;-64
2023/02/08 12:32:59;;;;;;;51.35;26.37;;;;;;;;;;771417;181;918684;-63
2023/02/08 12:35:31;;;;;;;66.17;34.53;;;;;;;;;;754106;183;916023;-63
2023/02/08 12:43:02;;;;;;;49.33;26.63;;;;;;;;;;757756;183;868529;-73
2023/02/08 12:45:33;;;;;;;37.37;19.07;;;;;;;;;;766787;181;817083;-73
2023/02/08 12:48:04;;;;;;;39.00;23.83;;;;;;;;;;758950;182;919295;-73
2023/02/08 12:50:33;;;;;;;59.90;31.13;;;;;;;;;;760434;182;919144;-73
2023/02/08 12:52:59;;;;;;;42.37;23.03;;;;;;;;;;753467;179;945613;-63
2023/02/08 12:55:25;;;;;;;53.87;32.43;;;;;;;;;;764663;181;919485;-63
2023/02/08 12:57:52;;;;;;;54.67;27.07;;;;;;;;;;758021;183;815853;-73
2023/02/08 13:00:19;;;;;;;50.67;26.20;;;;;;;;;;763191;180;1022822;-72
2023/02/08 13:02:45;;;;;;;59.00;30.50;;;;;;;;;;760321;181;915777;-63
2023/02/08 13:05:14;;;;;;;49.37;26.43;;;;;;;;;;756699;183;919076;-73
2023/02/08 13:07:40;;;;;;;57.23;30.93;;;;;;;;;;754601;182;918796;-63
2023/02/08 13:10:25;;;;;;;40.57;22.83;;;;;;;;;;755354;184;861288;-73
2023/02/08 13:12:48;;;;;;;51.60;29.00;;;;;;;;;;746621;186;919689;-63
2023/02/08 13:15:13;;;;;;;42.63;25.60;;;;;;;;;;767217;182;817404;-63
2023/02/08 13:17:39;;;;;;;43.10;21.67;;;;;;;;;;752885;183;939236;-72
2023/02/08 13:20:11;;;;;;;39.30;22.80;;;;;;;;;;756625;183;917597;-63
2023/02/08 13:22:37;;;;;;;45.40;22.13;;;;;;;;;;758228;182;918663;-64
2023/02/08 13:25:03;;;;;;;52.87;23.90;;;;;;;;;;760691;182;915154;-63
2023/02/08 13:27:29;;;;;;;47.63;24.20;;;;;;;;;;759549;182;921429;-64
2023/02/08 13:29:54;;;;;;;42.00;21.37;;;;;;;;;;756038;183;1025900;-73
2023/02/08 13:32:28;;;;;;;36.20;19.30;;;;;;;;;;765439;183;819367;-73
2023/02/08 13:34:57;;;;;;;46.90;24.77;;;;;;;;;;755997;182;820763;-73
2023/02/08 13:37:23;;;;;;;27.57;14.77;;;;;;;;;;758379;183;918588;-73
2023/02/08 13:39:49;;;;;;;48.57;23.00;;;;;;;;;;758992;183;815044;-73
2023/02/08 13:42:20;;;;;;;45.00;24.43;;;;;;;;;;765593;182;814565;-73
2023/02/08 13:44:47;;;;;;;75.63;32.20;;;;;;;;;;759762;183;808231;-64
2023/02/08 13:47:23;;;;;;;57.50;25.70;;;;;;;;;;756725;182;916452;-64
2023/02/08 13:49:58;;;;;;;53.78;24.15;;;;;;;;;;760387;181;916286;-63
2023/02/08 13:52:29;;;;;;;44.13;22.87;;;;;;;;;;756774;183;912056;-64
2023/02/08 13:55:01;;;;;;;44.92;19.42;;;;;;;;;;759444;184;1017935;-63
2023/02/08 13:57:32;;;;;;;45.43;19.07;;;;;;;;;;757446;182;919845;-63
2023/02/08 14:00:18;;;;;;;55.20;27.30;;;;;;;;;;752397;183;922055;-72
2023/02/08 14:02:44;;;;;;;44.27;21.37;;;;;;;;;;758292;182;918187;-63
2023/02/08 14:05:30;;;;;;;39.20;21.23;;;;;;;;;;756114;182;919113;-64
2023/02/08 14:07:56;;;;;;;57.07;30.90;;;;;;;;;;758346;183;816176;-72